createdAt,value
2022-12-03T00:00:12.461Z,49.8
2022-12-03T00:01:09.234Z,46.2
2022-12-03T00:02:09.899Z,52.9
2022-12-03T00:03:10.705Z,49.5
2022-12-03T00:04:11.331Z,48.5
2022-12-03T00:05:11.923Z,52.7
2022-12-03T00:06:12.512Z,49.2
2022-12-03T00:07:13.107Z,46.2
2022-12-03T00:08:13.738Z,47.8
2022-12-03T00:09:14.310Z,54.7
2022-12-03T00:10:14.903Z,48.2
2022-12-03T00:11:15.498Z,54.5
2022-12-03T00:12:16.092Z,51.3
2022-12-03T00:13:16.688Z,58.2
2022-12-03T00:14:17.280Z,55.2
2022-12-03T00:15:17.874Z,56.4
2022-12-03T00:16:18.561Z,51.7
2022-12-03T00:17:19.107Z,52.4
2022-12-03T00:18:19.699Z,48.4
2022-12-03T00:19:20.342Z,58.0
2022-12-03T00:20:20.937Z,50.7
2022-12-03T00:21:23.624Z,51.5
2022-12-03T00:22:22.157Z,48.3
2022-12-03T00:23:22.751Z,51.4
2022-12-03T00:24:23.343Z,54.4
2022-12-03T00:25:23.937Z,50.1
2022-12-03T00:26:24.550Z,48.7
2022-12-03T00:27:25.145Z,47.0
2022-12-03T00:28:25.738Z,48.7
2022-12-03T00:29:26.332Z,52.2
2022-12-03T00:30:26.926Z,47.4
2022-12-03T00:31:27.626Z,48.0
2022-12-03T00:32:28.174Z,51.0
2022-12-03T00:33:28.783Z,48.6
2022-12-03T00:34:29.361Z,48.9
2022-12-03T00:35:29.957Z,46.1
2022-12-03T00:36:30.549Z,54.2
2022-12-03T00:37:31.146Z,48.8
2022-12-03T00:38:31.739Z,52.5
2022-12-03T00:39:32.334Z,51.4
2022-12-03T00:40:32.952Z,52.0
2022-12-03T00:41:33.542Z,53.8
2022-12-03T00:42:34.136Z,49.7
2022-12-03T00:43:34.735Z,54.5
2022-12-03T00:44:35.323Z,49.4
2022-12-03T00:45:35.919Z,52.4
2022-12-03T00:46:36.570Z,48.6
2022-12-03T00:47:37.118Z,53.8
2022-12-03T00:48:37.711Z,51.6
2022-12-03T00:49:38.304Z,59.0
2022-12-03T00:50:38.897Z,51.6
2022-12-03T00:51:39.492Z,56.1
2022-12-03T00:52:40.086Z,54.2
2022-12-03T00:53:40.678Z,51.6
2022-12-03T00:54:41.275Z,48.8
2022-12-03T00:55:41.867Z,60.6
2022-12-03T00:56:42.460Z,53.7
2022-12-03T00:57:43.055Z,49.1
2022-12-03T00:58:43.647Z,47.6
2022-12-03T00:59:44.246Z,52.2
2022-12-03T01:00:44.852Z,46.4
2022-12-03T01:01:45.518Z,47.3
2022-12-03T01:02:46.071Z,45.9
2022-12-03T01:03:46.665Z,44.2
2022-12-03T01:04:47.294Z,44.4
2022-12-03T01:05:47.850Z,47.3
2022-12-03T01:06:48.442Z,44.6
2022-12-03T01:07:49.079Z,45.5
2022-12-03T01:08:49.633Z,48.5
2022-12-03T01:09:50.228Z,49.5
2022-12-03T01:10:50.822Z,42.7
2022-12-03T01:11:51.418Z,46.5
2022-12-03T01:12:52.042Z,49.1
2022-12-03T01:13:52.625Z,44.8
2022-12-03T01:14:53.519Z,41.7
2022-12-03T01:15:54.284Z,44.5
2022-12-03T01:16:54.828Z,43.0
2022-12-03T01:17:55.446Z,42.7
2022-12-03T01:18:56.054Z,44.5
2022-12-03T01:19:56.665Z,48.9
2022-12-03T01:20:57.257Z,43.9
2022-12-03T01:21:57.854Z,47.3
2022-12-03T01:22:58.444Z,45.4
2022-12-03T01:23:59.041Z,48.1
2022-12-03T01:24:59.634Z,49.1
2022-12-03T01:26:00.225Z,51.9
2022-12-03T01:27:00.817Z,48.7
2022-12-03T01:28:01.411Z,49.1
2022-12-03T01:29:02.003Z,48.0
2022-12-03T01:30:02.596Z,49.2
2022-12-03T01:31:03.320Z,45.2
2022-12-03T01:32:03.875Z,51.8
2022-12-03T01:33:04.467Z,52.6
2022-12-03T01:34:05.060Z,56.0
2022-12-03T01:35:05.653Z,48.0
2022-12-03T01:36:06.246Z,56.3
2022-12-03T01:37:06.838Z,49.4
2022-12-03T01:38:07.432Z,49.9
2022-12-03T01:39:08.023Z,52.5
2022-12-03T01:40:08.619Z,52.8
2022-12-03T01:41:11.884Z,59.2
2022-12-03T01:42:09.820Z,60.2
2022-12-03T01:43:10.411Z,63.4
2022-12-03T01:44:11.008Z,57.9
2022-12-03T01:45:11.620Z,58.8
2022-12-03T01:46:12.275Z,58.1
2022-12-03T01:47:12.843Z,55.9
2022-12-03T01:48:13.439Z,59.4
2022-12-03T01:49:14.050Z,59.3
2022-12-03T01:50:14.644Z,59.9
2022-12-03T01:51:15.257Z,62.7
2022-12-03T01:52:15.863Z,62.0
2022-12-03T01:53:16.470Z,60.5
2022-12-03T01:54:17.063Z,57.4
2022-12-03T01:55:17.658Z,61.8
2022-12-03T01:56:18.253Z,65.2
2022-12-03T01:57:18.846Z,63.9
2022-12-03T01:58:19.438Z,65.4
2022-12-03T01:59:20.031Z,63.7
2022-12-03T02:00:20.627Z,63.5
2022-12-03T02:01:21.278Z,68.6
2022-12-03T02:02:21.844Z,69.9
2022-12-03T02:03:22.436Z,63.0
2022-12-03T02:04:23.091Z,71.2
2022-12-03T02:05:23.661Z,65.0
2022-12-03T02:06:24.255Z,69.8
2022-12-03T02:07:24.895Z,68.8
2022-12-03T02:08:25.464Z,61.3
2022-12-03T02:09:26.061Z,65.7
2022-12-03T02:10:26.671Z,71.1
2022-12-03T02:11:27.284Z,71.8
2022-12-03T02:12:27.875Z,68.5
2022-12-03T02:13:28.472Z,68.1
2022-12-03T02:14:29.065Z,72.5
2022-12-03T02:15:29.660Z,81.6
2022-12-03T02:16:30.336Z,67.4
2022-12-03T02:17:30.933Z,71.1
2022-12-03T02:18:31.531Z,68.5
2022-12-03T02:19:32.137Z,66.1
2022-12-03T02:20:32.729Z,72.7
2022-12-03T02:21:33.326Z,63.7
2022-12-03T02:22:33.920Z,70.6
2022-12-03T02:23:34.516Z,71.6
2022-12-03T02:24:35.128Z,75.0
2022-12-03T02:25:35.724Z,65.9
2022-12-03T02:26:36.335Z,72.1
2022-12-03T02:27:36.931Z,69.3
2022-12-03T02:28:37.525Z,71.2
2022-12-03T02:29:38.117Z,75.8
2022-12-03T02:30:38.712Z,70.2
2022-12-03T02:31:39.381Z,66.6
2022-12-03T02:32:39.947Z,72.2
2022-12-03T02:33:40.539Z,72.1
2022-12-03T02:34:41.134Z,70.8
2022-12-03T02:35:41.731Z,74.5
2022-12-03T02:36:42.326Z,67.4
2022-12-03T02:37:42.923Z,70.3
2022-12-03T02:38:43.517Z,73.2
2022-12-03T02:39:44.113Z,72.0
2022-12-03T02:40:44.708Z,68.9
2022-12-03T02:41:45.304Z,64.6
2022-12-03T02:42:45.901Z,67.6
2022-12-03T02:43:46.494Z,74.9
2022-12-03T02:44:47.088Z,73.7
2022-12-03T02:45:47.698Z,76.4
2022-12-03T02:46:48.319Z,67.5
2022-12-03T02:47:48.891Z,71.0
2022-12-03T02:48:49.485Z,71.3
2022-12-03T02:49:50.078Z,70.0
2022-12-03T02:50:50.674Z,72.2
2022-12-03T02:51:51.269Z,69.4
2022-12-03T02:52:51.864Z,68.8
2022-12-03T02:53:52.477Z,71.9
2022-12-03T02:54:53.469Z,65.5
2022-12-03T02:55:53.678Z,64.6
2022-12-03T02:56:54.274Z,65.1
2022-12-03T02:57:54.866Z,67.4
2022-12-03T02:58:55.468Z,69.0
2022-12-03T02:59:56.056Z,61.7
2022-12-03T03:00:56.725Z,64.7
2022-12-03T03:01:57.312Z,62.0
2022-12-03T03:02:57.857Z,69.8
2022-12-03T03:03:58.455Z,62.2
2022-12-03T03:04:59.048Z,58.9
2022-12-03T03:05:59.642Z,66.0
2022-12-03T03:07:00.237Z,64.7
2022-12-03T03:08:00.969Z,56.6
2022-12-03T03:09:01.590Z,64.4
2022-12-03T03:10:02.187Z,56.0
2022-12-03T03:11:02.779Z,56.1
2022-12-03T03:12:03.376Z,64.3
2022-12-03T03:13:03.969Z,59.7
2022-12-03T03:14:04.565Z,63.4
2022-12-03T03:15:05.159Z,61.3
2022-12-03T03:16:05.823Z,56.1
2022-12-03T03:17:06.374Z,53.0
2022-12-03T03:18:07.032Z,54.3
2022-12-03T03:19:07.585Z,57.8
2022-12-03T03:20:08.182Z,57.2
2022-12-03T03:21:08.776Z,54.6
2022-12-03T03:22:09.372Z,55.2
2022-12-03T03:23:09.966Z,55.4
2022-12-03T03:24:10.563Z,54.0
2022-12-03T03:25:11.180Z,54.8
2022-12-03T03:26:11.776Z,60.5
2022-12-03T03:27:12.379Z,61.8
2022-12-03T03:28:12.969Z,57.0
2022-12-03T03:29:13.564Z,59.7
2022-12-03T03:30:14.167Z,55.5
2022-12-03T03:31:14.850Z,56.7
2022-12-03T03:32:15.403Z,53.2
2022-12-03T03:33:16.001Z,58.2
2022-12-03T03:34:16.592Z,61.0
2022-12-03T03:35:17.188Z,52.8
2022-12-03T03:36:17.785Z,58.8
2022-12-03T03:37:18.379Z,60.8
2022-12-03T03:38:18.975Z,56.4
2022-12-03T03:39:19.570Z,56.0
2022-12-03T03:40:20.165Z,63.1
2022-12-03T03:41:20.761Z,60.0
2022-12-03T03:42:21.357Z,61.6
2022-12-03T03:43:21.958Z,63.4
2022-12-03T03:44:22.550Z,64.1
2022-12-03T03:45:28.759Z,60.9
2022-12-03T03:46:24.798Z,66.8
2022-12-03T03:47:25.346Z,62.0
2022-12-03T03:48:25.940Z,69.5
2022-12-03T03:49:26.533Z,60.5
2022-12-03T03:50:27.143Z,59.8
2022-12-03T03:51:27.724Z,60.4
2022-12-03T03:52:28.319Z,61.1
2022-12-03T03:53:28.912Z,59.6
2022-12-03T03:54:29.526Z,61.6
2022-12-03T03:55:30.129Z,64.5
2022-12-03T03:56:30.719Z,64.1
2022-12-03T03:57:31.313Z,61.7
2022-12-03T03:58:31.919Z,62.3
2022-12-03T03:59:32.513Z,62.5
2022-12-03T04:00:33.150Z,65.1
2022-12-03T04:01:33.767Z,63.6
2022-12-03T04:02:34.348Z,58.6
2022-12-03T04:03:34.942Z,63.9
2022-12-03T04:04:35.581Z,58.7
2022-12-03T04:05:36.245Z,70.0
2022-12-03T04:06:36.841Z,67.8
2022-12-03T04:07:37.465Z,60.0
2022-12-03T04:08:38.045Z,66.3
2022-12-03T04:09:38.639Z,70.3
2022-12-03T04:10:39.237Z,66.0
2022-12-03T04:11:39.849Z,72.1
2022-12-03T04:12:40.448Z,71.5
2022-12-03T04:13:41.040Z,69.6
2022-12-03T04:14:41.636Z,70.9
2022-12-03T04:15:42.231Z,76.3
2022-12-03T04:16:42.850Z,78.7
2022-12-03T04:17:43.421Z,72.6
2022-12-03T04:18:44.014Z,72.1
2022-12-03T04:19:44.607Z,75.6
2022-12-03T04:20:45.204Z,72.0
2022-12-03T04:21:45.796Z,74.4
2022-12-03T04:22:46.389Z,77.5
2022-12-03T04:23:46.986Z,68.9
2022-12-03T04:24:47.580Z,78.6
2022-12-03T04:25:48.175Z,72.2
2022-12-03T04:26:48.770Z,66.2
2022-12-03T04:27:49.367Z,75.7
2022-12-03T04:28:49.964Z,73.3
2022-12-03T04:29:50.576Z,68.3
2022-12-03T04:30:51.240Z,74.1
2022-12-03T04:31:51.820Z,69.2
2022-12-03T04:32:52.434Z,71.2
2022-12-03T04:33:53.009Z,67.0
2022-12-03T04:34:54.013Z,61.2
2022-12-03T04:35:54.309Z,64.1
2022-12-03T04:36:54.856Z,68.0
2022-12-03T04:37:55.450Z,65.3
2022-12-03T04:38:56.048Z,65.0
2022-12-03T04:39:56.644Z,60.6
2022-12-03T04:40:57.260Z,68.1
2022-12-03T04:41:57.857Z,58.8
2022-12-03T04:42:58.453Z,53.6
2022-12-03T04:43:59.046Z,52.3
2022-12-03T04:44:59.644Z,58.4
2022-12-03T04:46:00.265Z,52.5
2022-12-03T04:47:00.837Z,61.0
2022-12-03T04:48:01.430Z,59.2
2022-12-03T04:49:02.028Z,54.7
2022-12-03T04:50:02.629Z,51.9
2022-12-03T04:51:03.218Z,55.8
2022-12-03T04:52:03.814Z,49.0
2022-12-03T04:53:04.410Z,55.4
2022-12-03T04:54:05.005Z,53.1
2022-12-03T04:55:05.601Z,52.4
2022-12-03T04:56:06.196Z,46.2
2022-12-03T04:57:06.790Z,52.2
2022-12-03T04:58:07.384Z,55.0
2022-12-03T04:59:12.708Z,59.6
2022-12-03T05:00:08.591Z,42.7
2022-12-03T05:01:09.216Z,48.6
2022-12-03T05:02:09.930Z,50.4
2022-12-03T05:03:10.569Z,47.1
2022-12-03T05:04:11.164Z,48.5
2022-12-03T05:05:11.777Z,49.2
2022-12-03T05:06:12.374Z,52.6
2022-12-03T05:07:12.967Z,48.6
2022-12-03T05:08:13.637Z,50.6
2022-12-03T05:09:14.210Z,48.8
2022-12-03T05:10:14.803Z,46.2
2022-12-03T05:11:15.399Z,49.1
2022-12-03T05:12:16.012Z,47.6
2022-12-03T05:13:16.607Z,48.0
2022-12-03T05:14:17.204Z,53.4
2022-12-03T05:15:17.796Z,44.2
2022-12-03T05:16:18.395Z,43.5
2022-12-03T05:17:18.985Z,41.5
2022-12-03T05:18:19.582Z,46.7
2022-12-03T05:19:20.257Z,47.0
2022-12-03T05:20:20.812Z,44.6
2022-12-03T05:21:21.409Z,49.1
2022-12-03T05:22:22.004Z,47.0
2022-12-03T05:23:22.600Z,47.4
2022-12-03T05:24:23.243Z,49.3
2022-12-03T05:25:23.794Z,47.7
2022-12-03T05:26:24.390Z,49.3
2022-12-03T05:27:25.003Z,43.8
2022-12-03T05:28:25.616Z,41.9
2022-12-03T05:29:26.233Z,47.0
2022-12-03T05:30:26.913Z,48.0
2022-12-03T05:31:27.477Z,46.5
2022-12-03T05:32:28.055Z,47.4
2022-12-03T05:33:28.652Z,50.3
2022-12-03T05:34:29.264Z,51.9
2022-12-03T05:35:29.878Z,50.7
2022-12-03T05:36:30.474Z,49.8
2022-12-03T05:37:31.069Z,45.1
2022-12-03T05:38:31.665Z,53.2
2022-12-03T05:39:32.286Z,50.5
2022-12-03T05:40:32.875Z,56.0
2022-12-03T05:41:33.469Z,51.6
2022-12-03T05:42:34.069Z,55.7
2022-12-03T05:43:34.656Z,49.5
2022-12-03T05:44:35.271Z,47.6
2022-12-03T05:45:35.868Z,53.0
2022-12-03T05:46:36.576Z,53.7
2022-12-03T05:47:37.188Z,53.2
2022-12-03T05:48:37.781Z,56.2
2022-12-03T05:49:38.379Z,57.8
2022-12-03T05:50:38.998Z,51.9
2022-12-03T05:51:39.586Z,54.4
2022-12-03T05:52:40.182Z,50.5
2022-12-03T05:53:40.799Z,51.6
2022-12-03T05:54:41.414Z,52.4
2022-12-03T05:55:42.008Z,48.7
2022-12-03T05:56:42.610Z,50.3
2022-12-03T05:57:43.202Z,48.0
2022-12-03T05:58:43.797Z,51.2
2022-12-03T05:59:44.393Z,57.8
2022-12-03T06:00:44.988Z,52.4
2022-12-03T06:01:45.583Z,48.6
2022-12-03T06:02:46.296Z,47.5
2022-12-03T06:03:47.154Z,50.7
2022-12-03T06:04:47.800Z,47.7
2022-12-03T06:05:48.416Z,49.5
2022-12-03T06:06:49.010Z,50.9
2022-12-03T06:07:49.649Z,49.4
2022-12-03T06:08:50.217Z,45.2
2022-12-03T06:09:50.812Z,45.8
2022-12-03T06:10:51.405Z,40.5
2022-12-03T06:11:52.003Z,44.2
2022-12-03T06:12:52.598Z,44.0
2022-12-03T06:13:53.191Z,42.4
2022-12-03T06:14:54.033Z,42.1
2022-12-03T06:15:54.789Z,43.2
2022-12-03T06:16:55.326Z,40.3
2022-12-03T06:17:55.920Z,39.0
2022-12-03T06:18:56.514Z,41.1
2022-12-03T06:19:57.130Z,36.1
2022-12-03T06:20:57.725Z,36.2
2022-12-03T06:21:58.338Z,36.3
2022-12-03T06:22:58.962Z,40.1
2022-12-03T06:23:59.578Z,39.7
2022-12-03T06:25:05.083Z,37.9
2022-12-03T06:26:01.754Z,41.9
2022-12-03T06:27:02.368Z,39.0
2022-12-03T06:28:02.978Z,41.1
2022-12-03T06:29:03.568Z,39.1
2022-12-03T06:30:04.172Z,37.4
2022-12-03T06:31:04.802Z,39.3
2022-12-03T06:32:05.372Z,37.5
2022-12-03T06:33:05.965Z,42.3
2022-12-03T06:34:06.558Z,41.5
2022-12-03T06:35:07.155Z,36.2
2022-12-03T06:36:07.748Z,41.5
2022-12-03T06:37:08.342Z,37.6
2022-12-03T06:38:08.937Z,36.5
2022-12-03T06:39:09.532Z,32.6
2022-12-03T06:40:10.128Z,35.2
2022-12-03T06:41:10.722Z,34.2
2022-12-03T06:42:11.320Z,28.2
2022-12-03T06:43:11.915Z,33.4
2022-12-03T06:44:12.529Z,32.1
2022-12-03T06:45:13.129Z,28.5
2022-12-03T06:46:13.731Z,30.6
2022-12-03T06:47:14.317Z,30.6
2022-12-03T06:48:14.911Z,29.8
2022-12-03T06:49:15.537Z,32.4
2022-12-03T06:50:16.135Z,29.7
2022-12-03T06:51:16.731Z,26.5
2022-12-03T06:52:17.326Z,31.7
2022-12-03T06:53:17.920Z,29.2
2022-12-03T06:54:18.527Z,29.4
2022-12-03T06:55:19.113Z,28.7
2022-12-03T06:56:22.271Z,28.6
2022-12-03T06:57:21.294Z,29.4
2022-12-03T06:58:21.889Z,31.6
2022-12-03T06:59:22.485Z,30.5
2022-12-03T07:00:23.079Z,28.0
2022-12-03T07:01:23.730Z,29.6
2022-12-03T07:02:24.352Z,26.3
2022-12-03T07:03:24.981Z,29.3
2022-12-03T07:04:25.947Z,30.2
2022-12-03T07:05:26.458Z,27.3
2022-12-03T07:06:27.052Z,29.4
2022-12-03T07:07:27.689Z,27.8
2022-12-03T07:08:28.243Z,26.8
2022-12-03T07:09:28.842Z,26.9
2022-12-03T07:10:29.435Z,30.9
2022-12-03T07:11:30.034Z,32.3
2022-12-03T07:12:30.628Z,29.7
2022-12-03T07:13:31.233Z,27.3
2022-12-03T07:14:31.820Z,31.7
2022-12-03T07:15:32.435Z,27.6
2022-12-03T07:16:33.116Z,27.9
2022-12-03T07:17:33.643Z,30.4
2022-12-03T07:18:34.239Z,28.8
2022-12-03T07:19:34.836Z,31.7
2022-12-03T07:20:35.432Z,28.9
2022-12-03T07:21:36.034Z,34.5
2022-12-03T07:22:36.627Z,38.5
2022-12-03T07:23:37.224Z,30.3
2022-12-03T07:24:37.819Z,37.2
2022-12-03T07:25:38.418Z,40.3
2022-12-03T07:26:39.013Z,39.2
2022-12-03T07:27:39.610Z,38.2
2022-12-03T07:28:40.206Z,35.4
2022-12-03T07:29:40.803Z,43.6
2022-12-03T07:30:41.397Z,41.6
2022-12-03T07:31:42.023Z,46.0
2022-12-03T07:32:42.589Z,44.6
2022-12-03T07:33:43.188Z,40.1
2022-12-03T07:34:43.801Z,42.4
2022-12-03T07:35:44.399Z,37.1
2022-12-03T07:36:44.997Z,40.5
2022-12-03T07:37:45.612Z,39.6
2022-12-03T07:38:46.207Z,45.2
2022-12-03T07:39:46.805Z,41.2
2022-12-03T07:40:47.402Z,46.3
2022-12-03T07:41:47.999Z,44.5
2022-12-03T07:42:48.596Z,46.2
2022-12-03T07:43:49.191Z,41.4
2022-12-03T07:44:49.786Z,45.5
2022-12-03T07:45:50.385Z,45.7
2022-12-03T07:46:51.028Z,45.2
2022-12-03T07:47:51.615Z,44.4
2022-12-03T07:48:52.219Z,45.3
2022-12-03T07:49:52.812Z,45.3
2022-12-03T07:50:53.407Z,46.9
2022-12-03T07:51:54.008Z,43.9
2022-12-03T07:52:54.605Z,42.0
2022-12-03T07:53:55.201Z,44.9
2022-12-03T07:54:56.071Z,51.1
2022-12-03T07:55:56.779Z,47.0
2022-12-03T07:57:01.436Z,53.3
2022-12-03T07:57:58.976Z,48.3
2022-12-03T07:58:59.569Z,48.0
2022-12-03T08:00:00.170Z,46.8
2022-12-03T08:01:00.873Z,52.7
2022-12-03T08:02:01.462Z,77.9
2022-12-03T08:03:02.048Z,49.5
2022-12-03T08:04:02.646Z,51.6
2022-12-03T08:05:03.234Z,63.7
2022-12-03T08:06:03.833Z,54.0
2022-12-03T08:07:04.432Z,54.4
2022-12-03T08:08:05.079Z,51.9
2022-12-03T08:09:05.638Z,51.3
2022-12-03T08:10:06.235Z,49.8
2022-12-03T08:11:06.838Z,45.9
2022-12-03T08:12:07.433Z,50.0
2022-12-03T08:13:08.029Z,53.1
2022-12-03T08:14:08.625Z,53.9
2022-12-03T08:15:09.242Z,47.1
2022-12-03T08:16:09.893Z,55.4
2022-12-03T08:17:10.449Z,51.4
2022-12-03T08:18:11.045Z,45.5
2022-12-03T08:19:11.641Z,45.9
2022-12-03T08:20:12.240Z,48.8
2022-12-03T08:21:12.836Z,47.1
2022-12-03T08:22:13.434Z,52.9
2022-12-03T08:23:14.051Z,45.2
2022-12-03T08:24:14.654Z,46.2
2022-12-03T08:25:15.266Z,44.0
2022-12-03T08:26:15.864Z,44.5
2022-12-03T08:27:16.461Z,44.8
2022-12-03T08:28:17.059Z,48.4
2022-12-03T08:29:17.657Z,46.6
2022-12-03T08:30:18.256Z,43.4
2022-12-03T08:31:18.890Z,45.3
2022-12-03T08:32:19.534Z,44.5
2022-12-03T08:33:20.113Z,45.0
2022-12-03T08:34:20.846Z,46.8
2022-12-03T08:35:21.323Z,45.7
2022-12-03T08:36:21.921Z,46.0
2022-12-03T08:37:22.517Z,41.9
2022-12-03T08:38:23.115Z,43.3
2022-12-03T08:39:23.710Z,43.0
2022-12-03T08:40:24.309Z,42.6
2022-12-03T08:41:24.904Z,42.2
2022-12-03T08:42:25.505Z,42.7
2022-12-03T08:43:26.103Z,44.1
2022-12-03T08:44:26.719Z,44.6
2022-12-03T08:45:27.353Z,42.1
2022-12-03T08:46:27.984Z,41.4
2022-12-03T08:47:28.568Z,41.1
2022-12-03T08:48:29.168Z,40.8
2022-12-03T08:49:29.767Z,38.7
2022-12-03T08:50:30.366Z,43.0
2022-12-03T08:51:30.966Z,42.2
2022-12-03T08:52:31.567Z,39.9
2022-12-03T08:53:32.164Z,43.8
2022-12-03T08:54:32.781Z,42.0
2022-12-03T08:55:33.378Z,38.1
2022-12-03T08:56:33.974Z,39.8
2022-12-03T08:57:34.574Z,37.0
2022-12-03T08:58:35.172Z,38.6
2022-12-03T08:59:35.771Z,38.2
2022-12-03T09:00:36.368Z,37.8
2022-12-03T09:01:37.043Z,39.4
2022-12-03T09:02:37.660Z,40.0
2022-12-03T09:03:38.258Z,37.0
2022-12-03T09:04:39.001Z,33.9
2022-12-03T09:05:39.691Z,37.9
2022-12-03T09:06:40.378Z,41.1
2022-12-03T09:07:41.066Z,37.6
2022-12-03T09:08:41.643Z,41.0
2022-12-03T09:09:42.243Z,41.9
2022-12-03T09:10:42.842Z,42.6
2022-12-03T09:11:43.469Z,40.1
2022-12-03T09:12:44.060Z,46.9
2022-12-03T09:13:44.678Z,45.1
2022-12-03T09:14:45.277Z,43.7
2022-12-03T09:15:45.877Z,44.1
2022-12-03T09:16:46.526Z,40.0
2022-12-03T09:17:47.092Z,49.0
2022-12-03T09:18:47.691Z,47.6
2022-12-03T09:19:48.290Z,43.3
2022-12-03T09:20:48.888Z,44.8
2022-12-03T09:21:49.495Z,47.8
2022-12-03T09:22:50.089Z,48.5
2022-12-03T09:23:50.683Z,53.7
2022-12-03T09:24:51.381Z,47.9
2022-12-03T09:25:52.008Z,51.3
2022-12-03T09:26:52.609Z,47.8
2022-12-03T09:27:53.210Z,49.2
2022-12-03T09:28:53.821Z,47.1
2022-12-03T09:29:54.406Z,46.8
2022-12-03T09:30:55.003Z,47.8
2022-12-03T09:31:55.721Z,51.8
2022-12-03T09:32:56.320Z,45.6
2022-12-03T09:33:56.922Z,48.2
2022-12-03T09:34:57.559Z,49.0
2022-12-03T09:35:58.119Z,44.0
2022-12-03T09:36:58.715Z,47.7
2022-12-03T09:37:59.312Z,48.8
2022-12-03T09:38:59.910Z,49.8
2022-12-03T09:40:00.507Z,47.0
2022-12-03T09:41:01.105Z,49.0
2022-12-03T09:42:01.700Z,47.9
2022-12-03T09:43:02.303Z,51.2
2022-12-03T09:44:04.383Z,49.1
2022-12-03T09:45:04.487Z,43.2
2022-12-03T09:46:05.175Z,49.6
2022-12-03T09:47:05.748Z,48.5
2022-12-03T09:48:06.345Z,47.0
2022-12-03T09:49:12.323Z,49.5
2022-12-03T09:50:08.536Z,46.2
2022-12-03T09:51:09.136Z,48.9
2022-12-03T09:52:09.732Z,45.7
2022-12-03T09:53:10.333Z,46.7
2022-12-03T09:54:10.932Z,51.3
2022-12-03T09:55:11.534Z,49.7
2022-12-03T09:56:12.132Z,43.4
2022-12-03T09:57:12.746Z,43.6
2022-12-03T09:58:13.341Z,44.1
2022-12-03T09:59:13.943Z,45.4
2022-12-03T10:00:14.539Z,45.7
2022-12-03T10:01:15.196Z,43.8
2022-12-03T10:02:15.759Z,38.5
2022-12-03T10:03:16.362Z,41.9
2022-12-03T10:04:17.049Z,43.5
2022-12-03T10:05:17.643Z,49.1
2022-12-03T10:06:18.252Z,48.8
2022-12-03T10:07:18.840Z,48.7
2022-12-03T10:08:19.512Z,53.2
2022-12-03T10:09:20.064Z,49.9
2022-12-03T10:10:20.675Z,43.0
2022-12-03T10:11:21.268Z,44.1
2022-12-03T10:12:21.867Z,43.4
2022-12-03T10:13:25.656Z,41.8
2022-12-03T10:14:24.065Z,40.5
2022-12-03T10:15:24.677Z,43.9
2022-12-03T10:16:25.334Z,42.0
2022-12-03T10:17:25.932Z,44.6
2022-12-03T10:18:30.399Z,40.5
2022-12-03T10:19:28.123Z,40.8
2022-12-03T10:20:28.719Z,37.5
2022-12-03T10:21:29.321Z,39.7
2022-12-03T10:22:29.919Z,44.1
2022-12-03T10:23:30.518Z,40.6
2022-12-03T10:24:31.117Z,37.3
2022-12-03T10:25:31.735Z,43.0
2022-12-03T10:26:32.353Z,40.5
2022-12-03T10:27:32.953Z,39.7
2022-12-03T10:28:33.550Z,35.2
2022-12-03T10:29:34.836Z,38.7
2022-12-03T10:30:35.610Z,39.1
2022-12-03T10:31:36.177Z,38.5
2022-12-03T10:32:36.777Z,39.8
2022-12-03T10:33:37.377Z,40.8
2022-12-03T10:34:37.993Z,36.4
2022-12-03T10:35:38.612Z,41.6
2022-12-03T10:36:39.230Z,36.5
2022-12-03T10:37:39.849Z,33.7
2022-12-03T10:38:40.448Z,38.7
2022-12-03T10:39:41.049Z,40.5
2022-12-03T10:40:41.648Z,36.5
2022-12-03T10:41:42.249Z,39.3
2022-12-03T10:42:42.847Z,38.5
2022-12-03T10:43:43.462Z,37.2
2022-12-03T10:44:44.057Z,40.8
2022-12-03T10:45:44.697Z,44.2
2022-12-03T10:46:45.305Z,40.6
2022-12-03T10:47:45.905Z,43.9
2022-12-03T10:48:46.504Z,42.5
2022-12-03T10:49:47.103Z,42.4
2022-12-03T10:50:47.705Z,46.5
2022-12-03T10:51:48.327Z,45.4
2022-12-03T10:52:48.922Z,45.2
2022-12-03T10:53:49.540Z,51.8
2022-12-03T10:54:50.157Z,42.8
2022-12-03T10:55:50.757Z,45.8
2022-12-03T10:56:51.356Z,50.3
2022-12-03T10:57:51.975Z,51.2
2022-12-03T10:58:52.577Z,49.2
2022-12-03T10:59:53.177Z,48.1
2022-12-03T11:00:53.777Z,46.3
2022-12-03T11:01:54.404Z,47.7
2022-12-03T11:02:57.268Z,46.9
2022-12-03T11:03:56.649Z,50.8
2022-12-03T11:04:57.243Z,44.8
2022-12-03T11:05:57.859Z,45.8
2022-12-03T11:06:58.440Z,44.3
2022-12-03T11:07:59.122Z,40.4
2022-12-03T11:09:03.986Z,42.5
2022-12-03T11:10:01.249Z,38.9
2022-12-03T11:11:01.853Z,40.7
2022-12-03T11:12:02.447Z,36.5
2022-12-03T11:13:03.064Z,41.6
2022-12-03T11:14:03.662Z,40.8
2022-12-03T11:15:04.281Z,42.8
2022-12-03T11:16:04.956Z,42.4
2022-12-03T11:17:05.532Z,40.6
2022-12-03T11:18:06.132Z,44.6
2022-12-03T11:19:06.732Z,40.8
2022-12-03T11:20:07.347Z,41.9
2022-12-03T11:21:07.946Z,42.2
2022-12-03T11:22:08.543Z,42.0
2022-12-03T11:23:09.139Z,46.0
2022-12-03T11:24:09.738Z,39.9
2022-12-03T11:25:10.353Z,39.7
2022-12-03T11:26:14.265Z,42.6
2022-12-03T11:27:12.542Z,43.6
2022-12-03T11:28:13.149Z,41.6
2022-12-03T11:29:13.739Z,39.9
2022-12-03T11:30:14.339Z,42.6
2022-12-03T11:31:15.027Z,41.1
2022-12-03T11:32:15.600Z,41.2
2022-12-03T11:33:16.202Z,44.2
2022-12-03T11:34:16.796Z,41.6
2022-12-03T11:35:17.396Z,47.5
2022-12-03T11:36:18.014Z,45.1
2022-12-03T11:37:18.612Z,39.9
2022-12-03T11:38:19.211Z,44.8
2022-12-03T11:39:19.811Z,42.2
2022-12-03T11:40:20.402Z,44.1
2022-12-03T11:41:21.001Z,43.3
2022-12-03T11:42:21.599Z,40.1
2022-12-03T11:43:22.200Z,43.3
2022-12-03T11:44:22.799Z,46.7
2022-12-03T11:45:23.405Z,43.3
2022-12-03T11:46:24.124Z,40.8
2022-12-03T11:47:24.680Z,41.9
2022-12-03T11:48:25.276Z,39.9
2022-12-03T11:49:25.875Z,45.9
2022-12-03T11:50:26.472Z,41.7
2022-12-03T11:51:27.073Z,45.3
2022-12-03T11:52:27.682Z,43.7
2022-12-03T11:53:28.360Z,43.1
2022-12-03T11:54:28.885Z,40.6
2022-12-03T11:55:29.486Z,40.1
2022-12-03T11:56:30.085Z,45.7
2022-12-03T11:57:30.689Z,47.2
2022-12-03T11:58:31.284Z,47.1
2022-12-03T11:59:31.879Z,45.8
2022-12-03T12:00:32.480Z,45.2
2022-12-03T12:01:38.276Z,47.5
2022-12-03T12:02:34.751Z,44.5
2022-12-03T12:03:35.411Z,43.7
2022-12-03T12:04:36.038Z,46.5
2022-12-03T12:05:36.609Z,46.8
2022-12-03T12:06:37.209Z,50.0
2022-12-03T12:07:37.898Z,44.4
2022-12-03T12:08:38.476Z,47.7
2022-12-03T12:09:39.075Z,46.1
2022-12-03T12:10:39.671Z,46.5
2022-12-03T12:11:40.271Z,47.1
2022-12-03T12:12:40.876Z,45.1
2022-12-03T12:13:41.471Z,48.1
2022-12-03T12:14:42.072Z,46.8
2022-12-03T12:15:42.758Z,44.8
2022-12-03T12:16:43.423Z,44.2
2022-12-03T12:17:43.963Z,48.5
2022-12-03T12:18:44.560Z,46.0
2022-12-03T12:19:48.476Z,43.0
2022-12-03T12:20:46.752Z,48.9
2022-12-03T12:21:47.396Z,43.6
2022-12-03T12:22:48.035Z,41.0
2022-12-03T12:23:48.632Z,46.1
2022-12-03T12:24:49.230Z,43.6
2022-12-03T12:25:54.192Z,48.3
2022-12-03T12:26:51.424Z,47.5
2022-12-03T12:27:52.016Z,41.0
2022-12-03T12:28:52.614Z,44.5
2022-12-03T12:29:53.495Z,46.2
2022-12-03T12:30:54.273Z,43.9
2022-12-03T12:31:54.962Z,44.4
2022-12-03T12:32:55.509Z,43.8
2022-12-03T12:33:56.107Z,45.0
2022-12-03T12:34:56.725Z,46.0
2022-12-03T12:35:57.323Z,42.3
2022-12-03T12:36:57.923Z,51.0
2022-12-03T12:38:00.410Z,48.1
2022-12-03T12:39:00.139Z,47.1
2022-12-03T12:40:00.722Z,44.4
2022-12-03T12:41:01.318Z,49.5
2022-12-03T12:42:01.916Z,48.4
2022-12-03T12:43:08.450Z,45.4
2022-12-03T12:44:03.131Z,41.9
2022-12-03T12:45:03.747Z,46.1
2022-12-03T12:46:25.047Z,45.0
2022-12-03T12:47:05.956Z,42.6
2022-12-03T12:48:06.539Z,45.7
2022-12-03T12:49:07.136Z,47.1
2022-12-03T12:50:07.732Z,46.3
2022-12-03T12:51:08.349Z,45.5
2022-12-03T12:52:08.966Z,47.7
2022-12-03T12:53:09.582Z,51.0
2022-12-03T12:54:10.199Z,54.0
2022-12-03T12:55:10.796Z,49.1
2022-12-03T12:56:11.393Z,47.3
2022-12-03T12:57:11.990Z,47.6
2022-12-03T12:58:12.588Z,44.7
2022-12-03T12:59:13.210Z,44.6
2022-12-03T13:00:13.812Z,106.1
2022-12-03T13:01:14.458Z,53.0
2022-12-03T13:02:15.067Z,51.9
2022-12-03T13:03:15.639Z,49.2
2022-12-03T13:04:16.239Z,55.7
2022-12-03T13:05:16.858Z,47.3
2022-12-03T13:06:17.477Z,51.5
2022-12-03T13:07:18.073Z,54.2
2022-12-03T13:08:18.737Z,48.5
2022-12-03T13:09:19.333Z,49.6
2022-12-03T13:10:19.935Z,53.2
2022-12-03T13:11:20.527Z,46.8
2022-12-03T13:12:21.127Z,46.6
2022-12-03T13:13:21.722Z,48.9
2022-12-03T13:14:22.322Z,49.6
2022-12-03T13:15:22.918Z,53.5
2022-12-03T13:16:23.538Z,53.6
2022-12-03T13:17:24.136Z,49.5
2022-12-03T13:18:24.752Z,49.8
2022-12-03T13:19:25.350Z,55.5
2022-12-03T13:20:25.950Z,48.3
2022-12-03T13:21:26.546Z,52.7
2022-12-03T13:22:27.164Z,54.9
2022-12-03T13:23:27.760Z,56.4
2022-12-03T13:24:28.359Z,46.9
2022-12-03T13:25:57.303Z,58.0
2022-12-03T13:26:38.120Z,53.0